Aérodrome :
LOGIN :

S'inscrire | Disclaimer

   EN    FR    IT 

 










Légende :    VFR   VFR Marginal   IFR   IFR Intensif   IFR Très Intensif
Visi : 
Plafond : 
>= 8 km
>= 3000ft
5 à 8 km
1000 à 3000 ft
1500m à 5 km
500 à 1000 ft
800 à 1500m
200 à 500 ft
< 800m
< 200 ft
Symboles :   Orages  Brouillard  Fortes neiges  Fortes précipitations  Vent > 20 kt
SIGMETs :   Divers  Orages  Givrage  Turbulence  Onde Orograph.  Cendres Volcan.






- Altitude de l'aérodrome : 3368 ft


LSGC - Les Eplatures

DERNIER METAR :
  • 291850Z AUTO 00000KT 9999 NSC M08/M09 Q1023

METARs EXPIRÉS :
  • 291820Z AUTO VRB01KT CAVOK M07/M08 Q1023
  • 291750Z AUTO VRB01KT CAVOK M06/M07 Q1023
  • 291720Z AUTO VRB01KT 9999 NSC M05/M07 Q1023
  • 291650Z AUTO VRB02KT 9999 FEW016 M04/M06 Q1023
  • 291620Z VRB01KT CAVOK M03/M06 Q1023

TAF AMD TAF LSGC
Valide du 29 à 16h jusqu'au 30 à 00h UTC


291614Z 2916/2924 VRB02KT CAVOK
BECMG 2918/2921 9999 SCT010
PROB40
TEMPO 2920/2924 BKN007
PROB30 2920/2924 0650 FZFG VV002



MET'MAP, la Météo Aéronautique d'un coup d'oeil ! - Copyright ORBIFLY Décembre 2007 - Disclaimer

ORBIFLY MET'MAP TEAM :

Programmation & Développement : Alexandra Zaïnal
Sur une idée originale de : Baudouin d'Aumeries
Soutien technique & logistique : Manuel Goepfert
Assistance : Marc-Olivier Méhu




SOURCES & CREDITS :

   NOAA